Aeroporto :
LOGIN :

Iscrizione | Disclaimer

   EN    FR    IT 

 










Sommario :    VFR   VFR Marginale   IFR   IFR Intensivo   IFR Molto Intensivo
Visibilità : 
Base nubi : 
>= 8 km
>= 3000ft
5 / 8 km
1000 / 3000 ft
1500m / 5 km
500 / 1000 ft
800 / 1500m
200 / 500 ft
< 800m
< 200 ft
Simboli :   Temporali  Nebbia  Neve Forte  Precipitazioni Forti  Vento > 20 kt
SIGMETs :   Varie  Temporali  Ghiacco  Turbolenza  Onda orograficha  Ceneri Vulcaniche






- Altitudine del aeroporto : 465 ft
- Codice IATA : LEJ


EDDP - Leipzig Halle

ULTIMO METAR :
  • 302020Z 34005KT 9999 SCT024 BKN042 02/M00 Q1026 NOSIG

METARs OBSOLETI :
  • 301950Z 36004KT 9999 SCT015 BKN039 02/00 Q1025 TEMPO BKN013
  • 301920Z 33005KT 300V360 9999 BKN015 BKN043 02/M00 Q1025 TEMPO BKN013
  • 301850Z 33006KT 9999 BKN015 02/M00 Q1025 TEMPO BKN013
  • 301820Z 31006KT 9999 SCT015 BKN022 02/M00 Q1025 TEMPO BKN013
  • 301750Z 32006KT 9999 SCT013 BKN023 03/M00 Q1025 TEMPO BKN013

TAF TAF EDDP
Valido dal 30 a 18 ore il 31 a 18 ore UTC


301700Z 3018/3118 33007KT 9999 BKN020
BECMG 3019/3023 BKN013
TEMPO 3022/3106 BKN008
BECMG 3022/3101 03007KT
BECMG 3106/3108 SCT030
BECMG 3115/3118 VRB03KT



MetMap, La meteo Aeronautica in un colpo d'occhio ! - Copyright ORBIFLY Dicembre 2007 - Disclaimer

ORBIFLY MET'MAP TEAM :

Programmazione e sviluppo : Alexandra Zaïnal
Concezione : Baudouin d'Aumeries
Aiuto per la programmazione : Marc-Olivier Méhu
Supporto tecnico e logistico : Manuel Goepfert
Aiuto per la traduzione : Arnaldo La Scala

Contatto : metmap@orbifly.com




FONTI E CREDITI :

   NOAA